createdAt,value
2018-11-12T00:00:00.142Z,11.67
2018-11-12T00:01:00.067Z,11.62
2018-11-12T00:02:00.028Z,11.58
2018-11-12T00:02:59.986Z,11.60
2018-11-12T00:03:59.941Z,11.58
2018-11-12T00:04:59.935Z,11.58
2018-11-12T00:05:59.866Z,11.70
2018-11-12T00:06:59.824Z,11.62
2018-11-12T00:07:59.785Z,11.70
2018-11-12T00:08:59.738Z,11.78
2018-11-12T00:09:59.697Z,11.67
2018-11-12T00:10:59.687Z,11.62
2018-11-12T00:11:59.618Z,11.62
2018-11-12T00:12:59.570Z,11.60
2018-11-12T00:13:59.530Z,11.62
2018-11-12T00:14:59.486Z,11.61
2018-11-12T00:15:59.512Z,11.64
2018-11-12T00:16:59.435Z,11.67
2018-11-12T00:17:59.371Z,11.64
2018-11-12T00:18:59.327Z,11.73
2018-11-12T00:19:59.286Z,11.65
2018-11-12T00:20:59.265Z,11.75
2018-11-12T00:21:59.245Z,11.65
2018-11-12T00:22:59.164Z,11.75
2018-11-12T00:23:59.114Z,11.69
2018-11-12T00:24:59.080Z,11.78
2018-11-12T00:25:59.088Z,11.64
2018-11-12T00:26:59.011Z,11.69
2018-11-12T00:27:58.954Z,11.61
2018-11-12T00:28:58.914Z,11.70
2018-11-12T00:29:58.875Z,11.69
2018-11-12T00:30:58.834Z,11.67
2018-11-12T00:31:58.819Z,11.65
2018-11-12T00:32:58.744Z,11.64
2018-11-12T00:33:58.703Z,11.64
2018-11-12T00:34:58.658Z,11.67
2018-11-12T00:35:58.619Z,11.70
2018-11-12T00:36:58.610Z,11.73
2018-11-12T00:37:58.545Z,11.67
2018-11-12T00:38:58.531Z,11.72
2018-11-12T00:39:58.462Z,11.70
2018-11-12T00:40:58.412Z,11.75
2018-11-12T00:41:58.371Z,11.75
2018-11-12T00:42:58.338Z,11.69
2018-11-12T00:43:58.298Z,11.69
2018-11-12T00:44:58.277Z,11.70
2018-11-12T00:45:58.231Z,11.70
2018-11-12T00:46:58.171Z,11.67
2018-11-12T00:47:58.123Z,11.62
2018-11-12T00:48:58.089Z,11.64
2018-11-12T00:49:58.051Z,11.62
2018-11-12T00:50:58.031Z,11.64
2018-11-12T00:51:57.965Z,11.64
2018-11-12T00:52:57.945Z,11.61
2018-11-12T00:53:57.880Z,11.64
2018-11-12T00:54:57.837Z,11.62
2018-11-12T00:55:57.818Z,11.55
2018-11-12T00:56:57.761Z,11.60
2018-11-12T00:57:57.722Z,11.60
2018-11-12T00:58:57.671Z,11.64
2018-11-12T00:59:57.631Z,11.67
2018-11-12T01:00:57.623Z,11.65
2018-11-12T01:01:57.555Z,11.70
2018-11-12T01:02:57.511Z,11.64
2018-11-12T01:03:57.496Z,11.72
2018-11-12T01:04:57.425Z,11.70
2018-11-12T01:05:57.388Z,11.65
2018-11-12T01:06:57.342Z,11.69
2018-11-12T01:07:57.321Z,11.72
2018-11-12T01:08:57.263Z,11.75
2018-11-12T01:09:57.224Z,11.80
2018-11-12T01:10:57.184Z,11.73
2018-11-12T01:11:57.165Z,11.73
2018-11-12T01:12:57.095Z,11.72
2018-11-12T01:13:57.051Z,11.70
2018-11-12T01:14:57.018Z,11.78
2018-11-12T01:15:56.986Z,11.72
2018-11-12T01:16:56.950Z,11.72
2018-11-12T01:17:56.886Z,11.82
2018-11-12T01:18:56.844Z,11.75
2018-11-12T01:19:56.809Z,11.88
2018-11-12T01:20:56.768Z,11.79
2018-11-12T01:21:56.750Z,11.76
2018-11-12T01:22:56.685Z,11.76
2018-11-12T01:23:56.646Z,11.76
2018-11-12T01:24:56.598Z,11.80
2018-11-12T01:25:56.558Z,11.82
2018-11-12T01:26:57.053Z,11.76
2018-11-12T01:27:56.471Z,11.75
2018-11-12T01:28:56.439Z,11.78
2018-11-12T01:29:56.397Z,11.78
2018-11-12T01:30:56.349Z,11.80
2018-11-12T01:31:56.329Z,11.69
2018-11-12T01:32:56.273Z,11.73
2018-11-12T01:33:56.233Z,11.80
2018-11-12T01:34:56.188Z,11.79
2018-11-12T01:35:56.171Z,11.72
2018-11-12T01:36:56.160Z,11.70
2018-11-12T01:37:56.059Z,11.82
2018-11-12T01:38:56.018Z,11.80
2018-11-12T01:39:55.973Z,11.78
2018-11-12T01:40:55.967Z,11.78
2018-11-12T01:41:55.938Z,11.75
2018-11-12T01:42:55.858Z,11.79
2018-11-12T01:43:55.815Z,11.73
2018-11-12T01:44:55.766Z,11.80
2018-11-12T01:45:55.752Z,11.73
2018-11-12T01:46:55.742Z,11.78
2018-11-12T01:47:55.652Z,11.75
2018-11-12T01:48:55.603Z,11.80
2018-11-12T01:49:55.566Z,11.76
2018-11-12T01:50:55.519Z,11.82
2018-11-12T01:51:55.513Z,11.70
2018-11-12T01:52:55.445Z,11.73
2018-11-12T01:53:55.400Z,11.80
2018-11-12T01:54:55.361Z,11.76
2018-11-12T01:55:55.317Z,11.69
2018-11-12T01:56:55.295Z,11.72
2018-11-12T01:57:55.227Z,11.76
2018-11-12T01:58:55.184Z,11.72
2018-11-12T01:59:55.147Z,11.70
2018-11-12T02:00:55.108Z,11.80
2018-11-12T02:01:55.095Z,11.80
2018-11-12T02:02:55.021Z,11.79
2018-11-12T02:03:54.977Z,11.72
2018-11-12T02:04:54.973Z,11.75
2018-11-12T02:05:54.903Z,11.82
2018-11-12T02:06:54.862Z,11.69
2018-11-12T02:07:54.843Z,11.76
2018-11-12T02:08:54.854Z,11.72
2018-11-12T02:09:54.730Z,11.73
2018-11-12T02:11:03.712Z,11.73
2018-11-12T02:11:54.658Z,11.79
2018-11-12T02:12:54.612Z,11.80
2018-11-12T02:13:54.571Z,11.75
2018-11-12T02:14:54.524Z,11.75
2018-11-12T02:15:54.504Z,11.73
2018-11-12T02:16:54.447Z,11.70
2018-11-12T02:17:54.430Z,11.72
2018-11-12T02:18:54.358Z,11.73
2018-11-12T02:19:54.319Z,11.69
2018-11-12T02:20:54.303Z,11.61
2018-11-12T02:21:54.229Z,11.73
2018-11-12T02:22:54.273Z,11.76
2018-11-12T02:23:54.156Z,11.70
2018-11-12T02:24:54.116Z,11.76
2018-11-12T02:25:54.074Z,11.78
2018-11-12T02:26:54.047Z,11.73
2018-11-12T02:27:53.981Z,11.73
2018-11-12T02:28:53.940Z,11.76
2018-11-12T02:29:53.898Z,11.78
2018-11-12T02:30:53.888Z,11.78
2018-11-12T02:31:53.829Z,11.78
2018-11-12T02:32:53.781Z,11.73
2018-11-12T02:33:53.757Z,11.69
2018-11-12T02:34:53.701Z,11.75
2018-11-12T02:35:53.659Z,11.76
2018-11-12T02:36:53.618Z,11.73
2018-11-12T02:37:53.575Z,11.79
2018-11-12T02:38:53.552Z,11.75
2018-11-12T02:39:53.482Z,11.65
2018-11-12T02:40:53.443Z,11.73
2018-11-12T02:41:53.403Z,11.75
2018-11-12T02:42:53.365Z,11.79
2018-11-12T02:43:53.327Z,11.76
2018-11-12T02:44:53.308Z,11.70
2018-11-12T02:45:53.241Z,11.80
2018-11-12T02:46:53.193Z,11.76
2018-11-12T02:47:53.182Z,11.80
2018-11-12T02:48:53.118Z,11.83
2018-11-12T02:49:53.101Z,11.88
2018-11-12T02:50:53.027Z,11.88
2018-11-12T02:51:52.986Z,11.83
2018-11-12T02:52:52.945Z,11.86
2018-11-12T02:53:52.906Z,11.76
2018-11-12T02:54:52.890Z,11.90
2018-11-12T02:55:52.826Z,11.85
2018-11-12T02:56:52.783Z,11.83
2018-11-12T02:57:52.793Z,11.80
2018-11-12T02:58:52.694Z,11.94
2018-11-12T02:59:52.681Z,11.95
2018-11-12T03:00:52.614Z,11.94
2018-11-12T03:01:52.595Z,11.94
2018-11-12T03:02:52.534Z,11.90
2018-11-12T03:03:52.497Z,11.86
2018-11-12T03:04:52.445Z,11.91
2018-11-12T03:05:52.426Z,11.99
2018-11-12T03:06:52.369Z,11.99
2018-11-12T03:07:52.331Z,11.91
2018-11-12T03:08:52.284Z,11.88
2018-11-12T03:09:52.243Z,12.02
2018-11-12T03:10:52.250Z,11.94
2018-11-12T03:11:52.154Z,11.98
2018-11-12T03:12:52.113Z,11.90
2018-11-12T03:13:52.073Z,12.01
2018-11-12T03:14:52.061Z,12.02
2018-11-12T03:15:51.996Z,11.94
2018-11-12T03:16:51.979Z,11.85
2018-11-12T03:17:51.913Z,11.94
2018-11-12T03:18:51.866Z,11.85
2018-11-12T03:19:51.822Z,11.90
2018-11-12T03:20:51.788Z,11.95
2018-11-12T03:21:51.770Z,11.91
2018-11-12T03:22:51.695Z,11.91
2018-11-12T03:23:51.661Z,11.85
2018-11-12T03:24:51.615Z,11.99
2018-11-12T03:25:51.580Z,11.85
2018-11-12T03:26:51.559Z,11.99
2018-11-12T03:27:51.598Z,11.94
2018-11-12T03:28:51.454Z,12.01
2018-11-12T03:29:51.415Z,11.90
2018-11-12T03:30:51.369Z,11.95
2018-11-12T03:31:51.348Z,11.94
2018-11-12T03:32:51.281Z,11.88
2018-11-12T03:33:51.266Z,11.95
2018-11-12T03:34:51.207Z,11.85
2018-11-12T03:35:51.165Z,12.01
2018-11-12T03:36:51.119Z,11.98
2018-11-12T03:37:51.077Z,11.85
2018-11-12T03:38:51.062Z,11.96
2018-11-12T03:39:51.070Z,11.98
2018-11-12T03:40:50.959Z,11.91
2018-11-12T03:41:50.918Z,11.80
2018-11-12T03:42:50.867Z,12.01
2018-11-12T03:43:50.848Z,11.95
2018-11-12T03:44:50.792Z,11.91
2018-11-12T03:45:50.752Z,11.98
2018-11-12T03:46:50.706Z,11.85
2018-11-12T03:47:50.691Z,11.86
2018-11-12T03:48:50.620Z,11.90
2018-11-12T03:49:50.578Z,11.98
2018-11-12T03:50:50.545Z,11.95
2018-11-12T03:51:50.503Z,11.94
2018-11-12T03:52:50.460Z,12.01
2018-11-12T03:53:50.442Z,11.95
2018-11-12T03:54:50.394Z,11.96
2018-11-12T03:55:50.337Z,11.86
2018-11-12T03:56:50.298Z,11.98
2018-11-12T03:57:50.255Z,11.98
2018-11-12T03:58:50.285Z,11.88
2018-11-12T03:59:50.163Z,11.86
2018-11-12T04:00:50.124Z,11.96
2018-11-12T04:01:50.080Z,11.95
2018-11-12T04:02:50.048Z,11.95
2018-11-12T04:03:50.030Z,11.95
2018-11-12T04:04:49.967Z,11.79
2018-11-12T04:05:49.924Z,11.99
2018-11-12T04:06:49.930Z,11.85
2018-11-12T04:07:49.857Z,11.88
2018-11-12T04:08:49.816Z,11.85
2018-11-12T04:09:49.758Z,11.94
2018-11-12T04:10:49.706Z,11.96
2018-11-12T04:11:58.747Z,11.95
2018-11-12T04:12:49.658Z,11.88
2018-11-12T04:13:49.591Z,12.01
2018-11-12T04:14:49.550Z,11.91
2018-11-12T04:15:49.512Z,11.98
2018-11-12T04:16:49.463Z,11.86
2018-11-12T04:17:49.444Z,11.95
2018-11-12T04:18:49.412Z,11.98
2018-11-12T04:19:49.360Z,11.94
2018-11-12T04:20:49.302Z,11.95
2018-11-12T04:21:49.262Z,11.94
2018-11-12T04:22:49.212Z,11.88
2018-11-12T04:23:49.172Z,11.86
2018-11-12T04:24:49.160Z,11.86
2018-11-12T04:25:49.096Z,11.98
2018-11-12T04:26:49.056Z,11.95
2018-11-12T04:27:49.035Z,11.98
2018-11-12T04:28:48.962Z,11.82
2018-11-12T04:29:48.918Z,11.95
2018-11-12T04:30:48.903Z,11.91
2018-11-12T04:31:48.838Z,11.82
2018-11-12T04:32:48.828Z,11.95
2018-11-12T04:33:48.765Z,11.90
2018-11-12T04:34:48.722Z,11.95
2018-11-12T04:35:48.682Z,11.94
2018-11-12T04:36:48.631Z,11.98
2018-11-12T04:37:48.617Z,11.94
2018-11-12T04:38:48.555Z,11.80
2018-11-12T04:39:48.519Z,11.99
2018-11-12T04:40:48.465Z,11.82
2018-11-12T04:41:48.425Z,11.90
2018-11-12T04:42:48.403Z,11.99
2018-11-12T04:43:48.341Z,11.96
2018-11-12T04:44:48.307Z,11.90
2018-11-12T04:45:48.266Z,11.85
2018-11-12T04:46:48.224Z,11.91
2018-11-12T04:47:48.206Z,11.88
2018-11-12T04:48:48.135Z,11.86
2018-11-12T04:49:48.094Z,11.90
2018-11-12T04:50:48.051Z,11.91
2018-11-12T04:51:48.034Z,11.96
2018-11-12T04:52:47.977Z,11.91
2018-11-12T04:53:48.054Z,11.94
2018-11-12T04:54:47.888Z,11.86
2018-11-12T04:55:47.853Z,11.94
2018-11-12T04:56:47.838Z,11.88
2018-11-12T04:57:47.771Z,11.94
2018-11-12T04:58:47.729Z,11.85
2018-11-12T04:59:47.686Z,11.90
2018-11-12T05:00:47.636Z,11.88
2018-11-12T05:01:47.609Z,11.94
2018-11-12T05:02:47.581Z,11.85
2018-11-12T05:03:47.513Z,11.79
2018-11-12T05:04:47.478Z,11.90
2018-11-12T05:05:47.438Z,11.82
2018-11-12T05:06:47.396Z,11.88
2018-11-12T05:07:47.358Z,11.91
2018-11-12T05:08:47.332Z,11.88
2018-11-12T05:09:47.264Z,11.90
2018-11-12T05:10:47.230Z,11.85
2018-11-12T05:11:47.189Z,11.80
2018-11-12T05:12:47.139Z,11.88
2018-11-12T05:13:47.099Z,11.85
2018-11-12T05:14:47.084Z,11.82
2018-11-12T05:15:47.017Z,11.75
2018-11-12T05:16:47.076Z,11.86
2018-11-12T05:17:46.943Z,11.85
2018-11-12T05:18:46.900Z,11.80
2018-11-12T05:19:46.943Z,11.88
2018-11-12T05:20:46.809Z,11.78
2018-11-12T05:21:46.769Z,11.85
2018-11-12T05:22:46.725Z,11.88
2018-11-12T05:23:46.685Z,11.91
2018-11-12T05:24:46.650Z,11.86
2018-11-12T05:25:46.630Z,11.90
2018-11-12T05:26:46.561Z,11.86
2018-11-12T05:27:46.519Z,11.73
2018-11-12T05:28:46.483Z,11.75
2018-11-12T05:29:46.457Z,11.72
2018-11-12T05:30:46.422Z,11.75
2018-11-12T05:31:46.358Z,11.83
2018-11-12T05:32:46.309Z,11.86
2018-11-12T05:33:46.294Z,11.76
2018-11-12T05:34:46.230Z,11.76
2018-11-12T05:35:46.242Z,11.78
2018-11-12T05:36:46.154Z,11.79
2018-11-12T05:37:46.203Z,11.78
2018-11-12T05:38:46.069Z,11.76
2018-11-12T05:39:46.065Z,11.79
2018-11-12T05:40:46.005Z,11.76
2018-11-12T05:41:45.940Z,11.75
2018-11-12T05:42:45.906Z,11.76
2018-11-12T05:43:45.862Z,11.75
2018-11-12T05:44:45.818Z,11.76
2018-11-12T05:45:45.795Z,11.72
2018-11-12T05:46:45.733Z,11.72
2018-11-12T05:47:45.690Z,11.72
2018-11-12T05:48:45.658Z,11.72
2018-11-12T05:49:45.617Z,11.85
2018-11-12T05:50:45.598Z,11.80
2018-11-12T05:51:45.533Z,11.69
2018-11-12T05:52:45.482Z,11.79
2018-11-12T05:53:45.447Z,11.80
2018-11-12T05:54:45.400Z,11.72
2018-11-12T05:55:45.381Z,11.78
2018-11-12T05:56:45.326Z,11.75
2018-11-12T05:57:45.285Z,11.76
2018-11-12T05:58:45.287Z,11.79
2018-11-12T05:59:45.194Z,11.72
2018-11-12T06:00:45.184Z,11.73
2018-11-12T06:01:45.120Z,11.78
2018-11-12T06:02:45.076Z,11.75
2018-11-12T06:03:45.037Z,11.70
2018-11-12T06:04:45.023Z,11.75
2018-11-12T06:05:44.970Z,11.83
2018-11-12T06:06:44.906Z,11.78
2018-11-12T06:07:44.863Z,11.76
2018-11-12T06:08:44.830Z,11.79
2018-11-12T06:09:44.787Z,11.73
2018-11-12T06:10:44.778Z,11.67
2018-11-12T06:11:44.706Z,11.80
2018-11-12T06:12:44.663Z,11.73
2018-11-12T06:13:44.617Z,11.80
2018-11-12T06:14:44.581Z,11.76
2018-11-12T06:15:44.540Z,11.78
2018-11-12T06:16:44.517Z,11.75
2018-11-12T06:17:44.447Z,11.85
2018-11-12T06:18:44.412Z,11.76
2018-11-12T06:19:44.365Z,11.78
2018-11-12T06:20:44.355Z,11.70
2018-11-12T06:21:44.290Z,11.78
2018-11-12T06:22:44.364Z,11.76
2018-11-12T06:23:44.210Z,11.80
2018-11-12T06:24:44.160Z,11.82
2018-11-12T06:25:44.140Z,11.76
2018-11-12T06:26:44.078Z,11.70
2018-11-12T06:27:44.035Z,11.76
2018-11-12T06:28:44.017Z,11.76
2018-11-12T06:29:43.984Z,11.75
2018-11-12T06:30:43.913Z,11.78
2018-11-12T06:31:43.870Z,11.75
2018-11-12T06:32:43.858Z,11.76
2018-11-12T06:33:43.796Z,11.82
2018-11-12T06:34:43.775Z,11.73
2018-11-12T06:35:43.714Z,11.73
2018-11-12T06:36:43.713Z,11.79
2018-11-12T06:37:43.625Z,11.69
2018-11-12T06:38:43.581Z,11.70
2018-11-12T06:39:43.562Z,11.72
2018-11-12T06:40:44.292Z,11.86
2018-11-12T06:41:43.465Z,11.88
2018-11-12T06:42:43.586Z,11.86
2018-11-12T06:43:43.385Z,11.88
2018-11-12T06:44:43.357Z,11.85
2018-11-12T06:45:43.294Z,11.86
2018-11-12T06:46:43.260Z,11.86
2018-11-12T06:47:43.218Z,11.82
2018-11-12T06:48:43.171Z,11.82
2018-11-12T06:49:43.150Z,11.82
2018-11-12T06:50:43.088Z,11.76
2018-11-12T06:51:43.046Z,11.69
2018-11-12T06:52:43.071Z,11.76
2018-11-12T06:53:42.971Z,11.72
2018-11-12T06:54:42.951Z,11.70
2018-11-12T06:55:42.889Z,11.73
2018-11-12T06:56:42.842Z,11.79
2018-11-12T06:57:42.801Z,11.82
2018-11-12T06:58:42.759Z,11.78
2018-11-12T06:59:42.743Z,11.76
2018-11-12T07:00:42.711Z,11.70
2018-11-12T07:01:42.647Z,11.73
2018-11-12T07:02:42.593Z,11.72
2018-11-12T07:03:42.553Z,11.75
2018-11-12T07:04:42.546Z,11.78
2018-11-12T07:05:42.477Z,11.83
2018-11-12T07:06:42.489Z,11.95
2018-11-12T07:07:42.393Z,12.02
2018-11-12T07:08:42.347Z,12.13
2018-11-12T07:09:42.331Z,12.24
2018-11-12T07:10:42.266Z,12.31
2018-11-12T07:11:42.221Z,12.29
2018-11-12T07:12:42.190Z,12.31
2018-11-12T07:13:42.150Z,12.23
2018-11-12T07:14:42.129Z,12.16
2018-11-12T07:15:42.068Z,12.14
2018-11-12T07:16:42.016Z,12.02
2018-11-12T07:17:41.981Z,11.95
2018-11-12T07:18:41.996Z,11.88
2018-11-12T07:19:41.902Z,11.98
2018-11-12T07:20:41.852Z,11.83
2018-11-12T07:21:41.812Z,12.04
2018-11-12T07:22:41.772Z,11.95
2018-11-12T07:23:41.754Z,11.90
2018-11-12T07:24:41.695Z,11.95
2018-11-12T07:25:41.656Z,12.01
2018-11-12T07:26:41.611Z,12.12
2018-11-12T07:27:41.579Z,12.13
2018-11-12T07:28:41.546Z,12.02
2018-11-12T07:29:41.485Z,12.16
2018-11-12T07:30:41.500Z,12.27
2018-11-12T07:31:41.409Z,12.23
2018-11-12T07:32:41.369Z,12.24
2018-11-12T07:33:41.349Z,12.28
2018-11-12T07:34:41.273Z,12.29
2018-11-12T07:35:41.257Z,12.27
2018-11-12T07:36:41.202Z,12.23
2018-11-12T07:37:41.162Z,12.14
2018-11-12T07:38:41.120Z,12.16
2018-11-12T07:39:41.105Z,12.13
2018-11-12T07:40:41.031Z,12.04
2018-11-12T07:41:41.801Z,12.02
2018-11-12T07:42:40.947Z,12.02
2018-11-12T07:43:40.908Z,12.02
2018-11-12T07:44:40.873Z,12.04
2018-11-12T07:45:40.855Z,12.05
2018-11-12T07:46:40.792Z,12.04
2018-11-12T07:47:40.752Z,12.02
2018-11-12T07:48:40.729Z,12.02
2018-11-12T07:49:40.663Z,12.13
2018-11-12T07:50:40.649Z,12.19
2018-11-12T07:51:40.633Z,12.13
2018-11-12T07:52:40.540Z,12.02
2018-11-12T07:53:40.500Z,12.02
2018-11-12T07:54:40.458Z,12.14
2018-11-12T07:55:40.439Z,12.27
2018-11-12T07:56:40.410Z,12.29
2018-11-12T07:57:40.342Z,12.29
2018-11-12T07:58:40.323Z,12.41
2018-11-12T07:59:40.261Z,12.38
2018-11-12T08:00:40.211Z,12.47
2018-11-12T08:01:40.168Z,12.42
2018-11-12T08:02:40.152Z,12.56
2018-11-12T08:03:40.151Z,12.46
2018-11-12T08:04:40.057Z,12.54
2018-11-12T08:05:40.019Z,12.52
2018-11-12T08:06:39.966Z,12.54
2018-11-12T08:07:39.949Z,12.47
2018-11-12T08:08:39.892Z,12.35
2018-11-12T08:09:39.921Z,12.49
2018-11-12T08:10:39.812Z,12.27
2018-11-12T08:11:39.779Z,12.35
2018-11-12T08:12:39.744Z,12.39
2018-11-12T08:13:39.681Z,12.27
2018-11-12T08:14:39.730Z,12.31
2018-11-12T08:15:39.598Z,12.32
2018-11-12T08:16:39.566Z,12.28
2018-11-12T08:17:39.644Z,12.29
2018-11-12T08:18:39.563Z,12.35
2018-11-12T08:19:39.444Z,12.41
2018-11-12T08:20:39.395Z,12.29
2018-11-12T08:21:39.392Z,12.46
2018-11-12T08:22:39.319Z,12.39
2018-11-12T08:23:39.302Z,12.45
2018-11-12T08:24:39.258Z,12.54
2018-11-12T08:25:39.190Z,12.47
2018-11-12T08:26:39.153Z,12.56
2018-11-12T08:27:39.109Z,12.52
2018-11-12T08:28:39.099Z,12.54
2018-11-12T08:29:39.091Z,12.52
2018-11-12T08:30:38.994Z,12.54
2018-11-12T08:31:38.952Z,12.52
2018-11-12T08:32:38.905Z,12.59
2018-11-12T08:33:38.895Z,12.60
2018-11-12T08:34:38.824Z,12.53
2018-11-12T08:35:38.781Z,12.53
2018-11-12T08:36:38.869Z,12.54
2018-11-12T08:37:38.705Z,12.57
2018-11-12T08:38:38.661Z,12.53
2018-11-12T08:39:38.802Z,12.59
2018-11-12T08:40:38.666Z,12.72
2018-11-12T08:41:38.547Z,12.82
2018-11-12T08:42:38.503Z,12.78
2018-11-12T08:43:38.462Z,12.77
2018-11-12T08:44:38.437Z,12.82
2018-11-12T08:45:38.377Z,12.83
2018-11-12T08:46:38.337Z,12.85
2018-11-12T08:47:38.297Z,12.87
2018-11-12T08:48:38.280Z,12.92
2018-11-12T08:49:38.402Z,13.03
2018-11-12T08:50:38.182Z,13.10
2018-11-12T08:51:38.141Z,13.11
2018-11-12T08:52:38.141Z,13.11
2018-11-12T08:53:38.054Z,13.20
2018-11-12T08:54:38.130Z,13.28
2018-11-12T08:55:38.037Z,13.28
2018-11-12T08:56:37.929Z,13.39
2018-11-12T08:57:37.904Z,13.36
2018-11-12T08:58:37.876Z,13.41
2018-11-12T08:59:37.829Z,13.45
2018-11-12T09:00:37.809Z,13.45
2018-11-12T09:01:37.739Z,13.44
2018-11-12T09:02:37.763Z,13.51
2018-11-12T09:03:37.659Z,13.48
2018-11-12T09:04:37.663Z,13.51
2018-11-12T09:05:37.633Z,13.59
2018-11-12T09:06:37.554Z,13.66
2018-11-12T09:07:37.490Z,13.77
2018-11-12T09:08:37.463Z,13.73
2018-11-12T09:09:37.420Z,13.69
2018-11-12T09:10:37.371Z,13.77
2018-11-12T09:11:37.352Z,13.78
2018-11-12T09:12:37.298Z,13.81
2018-11-12T09:13:37.263Z,13.91
2018-11-12T09:14:37.216Z,13.96
2018-11-12T09:15:37.225Z,14.06
2018-11-12T09:16:37.159Z,14.17
2018-11-12T09:17:37.093Z,14.46
2018-11-12T09:18:37.054Z,14.61
2018-11-12T09:19:37.025Z,14.65
2018-11-12T09:20:36.981Z,14.77
2018-11-12T09:21:36.966Z,14.92
2018-11-12T09:22:36.905Z,14.91
2018-11-12T09:23:36.863Z,14.91
2018-11-12T09:24:36.817Z,14.91
2018-11-12T09:25:36.780Z,14.86
2018-11-12T09:26:36.774Z,14.84
2018-11-12T09:27:36.709Z,15.10
2018-11-12T09:28:36.663Z,15.13
2018-11-12T09:29:36.734Z,15.38
2018-11-12T09:30:36.585Z,15.28
2018-11-12T09:31:36.550Z,15.75
2018-11-12T09:32:36.612Z,15.93
2018-11-12T09:33:36.479Z,16.24
2018-11-12T09:34:36.439Z,16.11
2018-11-12T09:35:36.426Z,16.04
2018-11-12T09:36:36.426Z,16.45
2018-11-12T09:38:36.288Z,16.71
2018-11-12T09:39:36.244Z,16.79
2018-11-12T09:40:36.249Z,16.48
2018-11-12T09:41:36.198Z,16.28
2018-11-12T09:42:36.131Z,16.12
2018-11-12T09:43:36.094Z,15.87
2018-11-12T09:44:36.068Z,15.82
2018-11-12T09:45:36.053Z,15.72
2018-11-12T09:46:35.993Z,15.74
2018-11-12T09:47:35.963Z,15.67
2018-11-12T09:48:35.913Z,15.67
2018-11-12T09:49:35.880Z,15.67
2018-11-12T09:50:35.862Z,15.59
2018-11-12T09:51:35.799Z,15.62
2018-11-12T09:52:35.769Z,15.64
2018-11-12T09:53:35.814Z,15.62
2018-11-12T09:54:35.857Z,15.59
2018-11-12T09:55:35.710Z,15.46
2018-11-12T09:56:35.637Z,15.60
2018-11-12T09:57:35.579Z,15.57
2018-11-12T09:58:35.547Z,15.59
2018-11-12T09:59:35.511Z,15.62
2018-11-12T10:00:35.759Z,15.57
2018-11-12T10:01:35.905Z,15.56
2018-11-12T10:02:36.241Z,15.64
2018-11-12T10:03:36.466Z,15.78
2018-11-12T10:04:35.882Z,16.05
2018-11-12T10:05:37.077Z,16.34
2018-11-12T10:06:36.386Z,17.04
2018-11-12T10:07:37.347Z,17.28
2018-11-12T10:08:36.639Z,17.66
2018-11-12T10:09:36.895Z,17.84
2018-11-12T10:10:37.542Z,17.72
2018-11-12T10:11:37.300Z,17.54
2018-11-12T10:12:38.530Z,17.36
2018-11-12T10:13:36.950Z,17.16
2018-11-12T10:14:37.796Z,17.01
2018-11-12T10:15:38.137Z,16.85
2018-11-12T10:16:38.291Z,16.48
2018-11-12T10:17:38.359Z,16.45
2018-11-12T10:18:34.809Z,16.43
2018-11-12T10:19:34.816Z,16.33
2018-11-12T10:20:34.746Z,16.25
2018-11-12T10:21:34.690Z,16.08
2018-11-12T10:22:34.652Z,16.02
2018-11-12T10:23:34.640Z,15.97
2018-11-12T10:24:34.585Z,16.05
2018-11-12T10:25:34.559Z,16.07
2018-11-12T10:26:34.512Z,15.96
2018-11-12T10:27:34.499Z,15.97
2018-11-12T10:28:34.431Z,15.97
2018-11-12T10:29:34.390Z,15.97
2018-11-12T10:30:34.385Z,16.05
2018-11-12T10:31:34.325Z,16.20
2018-11-12T10:32:34.293Z,16.28
2018-11-12T10:33:34.245Z,16.30
2018-11-12T10:34:34.236Z,16.20
2018-11-12T10:35:34.168Z,16.34
2018-11-12T10:36:34.139Z,16.39
2018-11-12T10:37:34.103Z,16.39
2018-11-12T10:38:34.083Z,16.35
2018-11-12T10:39:34.024Z,16.34
2018-11-12T10:40:33.982Z,16.43
2018-11-12T10:41:33.942Z,16.33
2018-11-12T10:42:33.929Z,16.30
2018-11-12T10:43:33.891Z,16.34
2018-11-12T10:44:33.913Z,16.31
2018-11-12T10:45:33.798Z,16.33
2018-11-12T10:46:33.751Z,16.34
2018-11-12T10:47:33.716Z,16.31
2018-11-12T10:48:33.755Z,16.35
2018-11-12T10:49:33.669Z,16.33
2018-11-12T10:50:33.611Z,16.46
2018-11-12T10:51:33.571Z,16.48
2018-11-12T10:52:33.526Z,16.57
2018-11-12T10:53:33.540Z,16.78
2018-11-12T10:54:33.592Z,16.82
2018-11-12T10:55:33.751Z,17.01
2018-11-12T10:56:33.383Z,17.08
2018-11-12T10:57:33.345Z,17.21
2018-11-12T10:58:33.346Z,17.31
2018-11-12T10:59:33.304Z,17.22
2018-11-12T11:00:33.227Z,17.14
2018-11-12T11:01:33.189Z,17.15
2018-11-12T11:02:33.155Z,17.08
2018-11-12T11:03:33.118Z,16.98
2018-11-12T11:04:33.095Z,17.00
2018-11-12T11:05:33.038Z,16.97
2018-11-12T11:06:32.996Z,16.82
2018-11-12T11:07:32.961Z,16.81
2018-11-12T11:08:32.932Z,16.78
2018-11-12T11:09:32.918Z,16.63
2018-11-12T11:10:32.860Z,16.67
2018-11-12T11:11:32.819Z,16.68
2018-11-12T11:12:32.777Z,16.67
2018-11-12T11:13:32.738Z,16.71
2018-11-12T11:14:32.725Z,16.73
2018-11-12T11:15:32.711Z,16.86
2018-11-12T11:16:32.638Z,16.82
2018-11-12T11:17:32.600Z,16.89
2018-11-12T11:18:32.550Z,16.98
2018-11-12T11:19:32.551Z,17.04
2018-11-12T11:20:32.512Z,17.06
2018-11-12T11:21:32.447Z,17.06
2018-11-12T11:22:32.410Z,17.19
2018-11-12T11:23:32.368Z,17.33
2018-11-12T11:24:32.326Z,17.38
2018-11-12T11:25:32.303Z,17.51
2018-11-12T11:26:32.320Z,17.66
2018-11-12T11:27:32.215Z,17.63
2018-11-12T11:28:32.186Z,17.70
2018-11-12T11:29:32.149Z,17.72
2018-11-12T11:30:32.111Z,17.82
2018-11-12T11:31:32.100Z,17.90
2018-11-12T11:32:32.041Z,17.90
2018-11-12T11:33:31.994Z,17.84
2018-11-12T11:34:31.963Z,17.81
2018-11-12T11:35:31.930Z,17.84
2018-11-12T11:36:31.911Z,17.77
2018-11-12T11:37:31.852Z,17.75
2018-11-12T11:38:31.812Z,17.74
2018-11-12T11:39:31.772Z,17.86
2018-11-12T11:40:31.746Z,17.74
2018-11-12T11:41:31.703Z,17.84
2018-11-12T11:42:31.692Z,17.89
2018-11-12T11:43:31.631Z,17.90
2018-11-12T11:44:31.593Z,18.05
2018-11-12T11:45:31.582Z,17.92
2018-11-12T11:46:31.543Z,17.97
2018-11-12T11:47:31.607Z,18.00
2018-11-12T11:48:31.493Z,18.17
2018-11-12T11:49:31.413Z,18.15
2018-11-12T11:50:31.435Z,18.18
2018-11-12T11:51:31.332Z,18.23
2018-11-12T11:52:31.327Z,18.15
2018-11-12T11:53:31.274Z,18.07
2018-11-12T11:54:31.294Z,18.00
2018-11-12T11:55:31.198Z,18.02
2018-11-12T11:56:31.240Z,18.08
2018-11-12T11:57:32.214Z,18.05
2018-11-12T11:58:31.080Z,18.00
2018-11-12T11:59:31.217Z,17.96
2018-11-12T12:00:31.018Z,17.87
2018-11-12T12:01:31.014Z,17.84
2018-11-12T12:02:30.969Z,17.89
2018-11-12T12:03:30.903Z,17.92
2018-11-12T12:04:30.861Z,17.84
2018-11-12T12:05:30.831Z,17.86
2018-11-12T12:06:30.799Z,17.84
2018-11-12T12:07:30.761Z,17.81
2018-11-12T12:08:30.749Z,17.79
2018-11-12T12:09:30.683Z,17.68
2018-11-12T12:10:30.645Z,17.55
2018-11-12T12:11:30.609Z,17.64
2018-11-12T12:12:30.578Z,17.66
2018-11-12T12:13:30.552Z,17.55
2018-11-12T12:14:30.521Z,17.44
2018-11-12T12:15:30.460Z,17.46
2018-11-12T12:16:30.433Z,17.55
2018-11-12T12:17:30.420Z,17.41
2018-11-12T12:18:30.430Z,17.41
2018-11-12T12:19:30.324Z,17.41
2018-11-12T12:20:30.279Z,17.37
2018-11-12T12:21:30.241Z,17.43
2018-11-12T12:22:30.212Z,17.58
2018-11-12T12:23:30.199Z,17.55
2018-11-12T12:24:30.212Z,17.54
2018-11-12T12:25:30.142Z,17.70
2018-11-12T12:26:30.114Z,17.49
2018-11-12T12:27:30.019Z,17.46
2018-11-12T12:28:30.018Z,17.54
2018-11-12T12:29:29.989Z,17.52
2018-11-12T12:30:29.917Z,17.52
2018-11-12T12:31:29.878Z,17.62
2018-11-12T12:32:29.836Z,17.54
2018-11-12T12:33:29.821Z,17.58
2018-11-12T12:34:29.786Z,17.52
2018-11-12T12:35:29.735Z,17.44
2018-11-12T12:36:29.743Z,17.49
2018-11-12T12:37:29.752Z,17.48
2018-11-12T12:38:29.664Z,17.28
2018-11-12T12:39:29.655Z,17.33
2018-11-12T12:40:29.569Z,17.31
2018-11-12T12:41:29.535Z,17.43
2018-11-12T12:42:29.490Z,17.43
2018-11-12T12:43:29.445Z,17.44
2018-11-12T12:44:29.437Z,17.54
2018-11-12T12:45:29.563Z,17.56
2018-11-12T12:46:29.345Z,17.55
2018-11-12T12:47:29.280Z,17.55
2018-11-12T12:48:29.251Z,17.46
2018-11-12T12:49:29.231Z,17.31
2018-11-12T12:50:29.197Z,17.16
2018-11-12T12:51:29.192Z,17.04
2018-11-12T12:52:29.096Z,17.03